sensor_id;sensor_type;location;lat;lon;timestamp;temperature;humidity
29243;DHT22;21110;48.036;15.780;2023-02-02T00:01:32;23.30;40.90
29243;DHT22;21110;48.036;15.780;2023-02-02T00:03:58;23.30;40.90
29243;DHT22;21110;48.036;15.780;2023-02-02T00:06:26;23.30;41.00
29243;DHT22;21110;48.036;15.780;2023-02-02T00:08:52;23.30;41.00
29243;DHT22;21110;48.036;15.780;2023-02-02T00:11:18;23.30;40.90
29243;DHT22;21110;48.036;15.780;2023-02-02T00:13:44;23.30;40.90
29243;DHT22;21110;48.036;15.780;2023-02-02T00:16:44;23.30;40.90
29243;DHT22;21110;48.036;15.780;2023-02-02T00:19:14;23.40;40.90
29243;DHT22;21110;48.036;15.780;2023-02-02T00:21:40;23.40;40.80
29243;DHT22;21110;48.036;15.780;2023-02-02T00:24:07;23.40;40.90
29243;DHT22;21110;48.036;15.780;2023-02-02T00:26:34;23.40;41.00
29243;DHT22;21110;48.036;15.780;2023-02-02T00:28:59;23.30;41.10
29243;DHT22;21110;48.036;15.780;2023-02-02T00:31:25;23.30;41.70
29243;DHT22;21110;48.036;15.780;2023-02-02T00:33:51;23.30;41.70
29243;DHT22;21110;48.036;15.780;2023-02-02T00:36:18;23.30;41.70
29243;DHT22;21110;48.036;15.780;2023-02-02T00:38:45;23.20;42.00
29243;DHT22;21110;48.036;15.780;2023-02-02T00:41:11;23.20;41.80
29243;DHT22;21110;48.036;15.780;2023-02-02T00:43:37;23.10;41.50
29243;DHT22;21110;48.036;15.780;2023-02-02T00:46:02;23.10;41.30
29243;DHT22;21110;48.036;15.780;2023-02-02T00:48:28;23.10;41.30
29243;DHT22;21110;48.036;15.780;2023-02-02T00:50:54;23.10;41.60
29243;DHT22;21110;48.036;15.780;2023-02-02T00:53:19;23.10;41.40
29243;DHT22;21110;48.036;15.780;2023-02-02T00:55:45;23.10;41.30
29243;DHT22;21110;48.036;15.780;2023-02-02T00:58:10;23.10;41.60
29243;DHT22;21110;48.036;15.780;2023-02-02T01:00:36;23.10;41.50
29243;DHT22;21110;48.036;15.780;2023-02-02T01:03:02;23.10;41.50
29243;DHT22;21110;48.036;15.780;2023-02-02T01:05:30;23.10;41.40
29243;DHT22;21110;48.036;15.780;2023-02-02T01:07:56;23.20;41.50
29243;DHT22;21110;48.036;15.780;2023-02-02T01:10:21;23.10;41.30
29243;DHT22;21110;48.036;15.780;2023-02-02T01:12:47;23.10;41.50
29243;DHT22;21110;48.036;15.780;2023-02-02T01:15:13;23.10;41.40
29243;DHT22;21110;48.036;15.780;2023-02-02T01:17:39;23.10;41.50
29243;DHT22;21110;48.036;15.780;2023-02-02T01:20:06;23.10;41.50
29243;DHT22;21110;48.036;15.780;2023-02-02T01:22:32;23.10;41.60
29243;DHT22;21110;48.036;15.780;2023-02-02T01:24:59;23.10;41.50
29243;DHT22;21110;48.036;15.780;2023-02-02T01:27:25;23.10;41.50
29243;DHT22;21110;48.036;15.780;2023-02-02T01:29:51;23.10;41.50
29243;DHT22;21110;48.036;15.780;2023-02-02T01:32:16;23.10;41.50
29243;DHT22;21110;48.036;15.780;2023-02-02T01:34:42;23.10;41.50
29243;DHT22;21110;48.036;15.780;2023-02-02T01:37:09;23.10;41.80
29243;DHT22;21110;48.036;15.780;2023-02-02T01:39:35;23.10;41.70
29243;DHT22;21110;48.036;15.780;2023-02-02T01:42:01;23.10;41.70
29243;DHT22;21110;48.036;15.780;2023-02-02T01:47:19;23.10;41.80
29243;DHT22;21110;48.036;15.780;2023-02-02T01:49:46;23.10;41.80
29243;DHT22;21110;48.036;15.780;2023-02-02T01:52:14;23.10;41.90
29243;DHT22;21110;48.036;15.780;2023-02-02T01:54:44;23.00;41.80
29243;DHT22;21110;48.036;15.780;2023-02-02T01:59:38;23.10;41.90
29243;DHT22;21110;48.036;15.780;2023-02-02T02:02:05;23.10;41.90
29243;DHT22;21110;48.036;15.780;2023-02-02T02:04:31;23.10;42.00
29243;DHT22;21110;48.036;15.780;2023-02-02T02:06:59;23.10;42.00
29243;DHT22;21110;48.036;15.780;2023-02-02T02:09:25;23.10;42.10
29243;DHT22;21110;48.036;15.780;2023-02-02T02:11:52;23.10;42.00
29243;DHT22;21110;48.036;15.780;2023-02-02T02:14:18;23.10;42.00
29243;DHT22;21110;48.036;15.780;2023-02-02T02:37:41;23.00;42.10
29243;DHT22;21110;48.036;15.780;2023-02-02T02:42:52;22.90;42.00
29243;DHT22;21110;48.036;15.780;2023-02-02T02:45:19;23.00;42.10
29243;DHT22;21110;48.036;15.780;2023-02-02T02:47:46;23.00;42.20
29243;DHT22;21110;48.036;15.780;2023-02-02T02:50:12;22.90;42.20
29243;DHT22;21110;48.036;15.780;2023-02-02T02:52:39;22.90;42.20
29243;DHT22;21110;48.036;15.780;2023-02-02T02:55:06;22.90;42.20
29243;DHT22;21110;48.036;15.780;2023-02-02T03:06:15;22.80;42.40
29243;DHT22;21110;48.036;15.780;2023-02-02T03:09:02;22.80;42.40
29243;DHT22;21110;48.036;15.780;2023-02-02T03:11:29;22.80;42.40
29243;DHT22;21110;48.036;15.780;2023-02-02T03:13:55;22.70;42.40
29243;DHT22;21110;48.036;15.780;2023-02-02T03:16:21;22.70;42.40
29243;DHT22;21110;48.036;15.780;2023-02-02T03:18:47;22.70;42.40
29243;DHT22;21110;48.036;15.780;2023-02-02T03:21:12;22.70;42.40
29243;DHT22;21110;48.036;15.780;2023-02-02T03:23:38;22.70;42.50
29243;DHT22;21110;48.036;15.780;2023-02-02T03:26:04;22.70;43.00
29243;DHT22;21110;48.036;15.780;2023-02-02T03:28:31;22.70;42.50
29243;DHT22;21110;48.036;15.780;2023-02-02T03:30:57;22.70;42.50
29243;DHT22;21110;48.036;15.780;2023-02-02T03:33:24;22.70;42.60
29243;DHT22;21110;48.036;15.780;2023-02-02T03:35:50;22.70;42.60
29243;DHT22;21110;48.036;15.780;2023-02-02T03:38:16;22.60;42.50
29243;DHT22;21110;48.036;15.780;2023-02-02T03:40:41;22.60;42.60
29243;DHT22;21110;48.036;15.780;2023-02-02T03:43:07;22.60;42.60
29243;DHT22;21110;48.036;15.780;2023-02-02T03:45:33;22.60;42.60
29243;DHT22;21110;48.036;15.780;2023-02-02T03:48:05;22.60;42.70
29243;DHT22;21110;48.036;15.780;2023-02-02T03:50:31;22.60;42.80
29243;DHT22;21110;48.036;15.780;2023-02-02T03:52:57;22.60;42.70
29243;DHT22;21110;48.036;15.780;2023-02-02T03:55:22;22.60;42.80
29243;DHT22;21110;48.036;15.780;2023-02-02T03:57:51;22.70;43.00
29243;DHT22;21110;48.036;15.780;2023-02-02T04:00:17;22.70;43.00
29243;DHT22;21110;48.036;15.780;2023-02-02T04:02:42;22.60;42.80
29243;DHT22;21110;48.036;15.780;2023-02-02T04:05:08;22.60;42.90
29243;DHT22;21110;48.036;15.780;2023-02-02T04:07:34;22.60;43.00
29243;DHT22;21110;48.036;15.780;2023-02-02T04:09:59;22.60;43.00
29243;DHT22;21110;48.036;15.780;2023-02-02T04:12:25;22.60;43.10
29243;DHT22;21110;48.036;15.780;2023-02-02T04:14:50;22.60;43.00
29243;DHT22;21110;48.036;15.780;2023-02-02T04:17:16;22.50;43.00
29243;DHT22;21110;48.036;15.780;2023-02-02T04:19:41;22.60;43.10
29243;DHT22;21110;48.036;15.780;2023-02-02T04:22:07;22.50;43.00
29243;DHT22;21110;48.036;15.780;2023-02-02T04:24:33;22.50;43.30
29243;DHT22;21110;48.036;15.780;2023-02-02T04:26:58;22.50;43.30
29243;DHT22;21110;48.036;15.780;2023-02-02T04:29:24;22.50;43.30
29243;DHT22;21110;48.036;15.780;2023-02-02T04:31:50;22.40;43.20
29243;DHT22;21110;48.036;15.780;2023-02-02T04:34:16;22.50;43.10
29243;DHT22;21110;48.036;15.780;2023-02-02T04:36:42;22.50;43.20
29243;DHT22;21110;48.036;15.780;2023-02-02T04:39:10;22.50;43.20
29243;DHT22;21110;48.036;15.780;2023-02-02T04:41:36;22.50;43.10
29243;DHT22;21110;48.036;15.780;2023-02-02T04:44:04;22.50;43.20
29243;DHT22;21110;48.036;15.780;2023-02-02T04:46:31;22.60;43.10
29243;DHT22;21110;48.036;15.780;2023-02-02T04:48:56;22.60;43.10
29243;DHT22;21110;48.036;15.780;2023-02-02T04:51:22;22.70;43.20
29243;DHT22;21110;48.036;15.780;2023-02-02T04:53:47;22.70;43.40
29243;DHT22;21110;48.036;15.780;2023-02-02T04:56:15;22.80;43.50
29243;DHT22;21110;48.036;15.780;2023-02-02T04:58:42;22.70;43.40
29243;DHT22;21110;48.036;15.780;2023-02-02T05:01:14;22.70;43.40
29243;DHT22;21110;48.036;15.780;2023-02-02T05:03:40;22.80;44.10
29243;DHT22;21110;48.036;15.780;2023-02-02T05:06:06;22.60;41.20
29243;DHT22;21110;48.036;15.780;2023-02-02T05:08:32;22.20;38.90
29243;DHT22;21110;48.036;15.780;2023-02-02T05:10:57;21.20;37.60
29243;DHT22;21110;48.036;15.780;2023-02-02T05:13:23;21.30;38.60
29243;DHT22;21110;48.036;15.780;2023-02-02T05:15:49;21.40;38.60
29243;DHT22;21110;48.036;15.780;2023-02-02T05:18:14;21.50;38.10
29243;DHT22;21110;48.036;15.780;2023-02-02T05:20:40;21.50;37.80
29243;DHT22;21110;48.036;15.780;2023-02-02T05:23:06;21.40;37.50
29243;DHT22;21110;48.036;15.780;2023-02-02T05:25:31;21.30;37.30
29243;DHT22;21110;48.036;15.780;2023-02-02T05:27:57;21.30;39.20
29243;DHT22;21110;48.036;15.780;2023-02-02T05:30:23;21.50;39.90
29243;DHT22;21110;48.036;15.780;2023-02-02T05:32:48;21.60;39.60
29243;DHT22;21110;48.036;15.780;2023-02-02T05:35:14;21.60;39.70
29243;DHT22;21110;48.036;15.780;2023-02-02T05:37:41;21.70;39.90
29243;DHT22;21110;48.036;15.780;2023-02-02T05:40:08;21.70;39.90
29243;DHT22;21110;48.036;15.780;2023-02-02T05:42:34;21.70;40.20
29243;DHT22;21110;48.036;15.780;2023-02-02T05:44:59;21.70;40.40
29243;DHT22;21110;48.036;15.780;2023-02-02T05:47:25;21.60;40.20
29243;DHT22;21110;48.036;15.780;2023-02-02T05:49:51;21.70;40.50
29243;DHT22;21110;48.036;15.780;2023-02-02T05:52:18;21.60;40.50
29243;DHT22;21110;48.036;15.780;2023-02-02T05:54:45;21.60;40.10
29243;DHT22;21110;48.036;15.780;2023-02-02T05:57:10;21.70;40.70
29243;DHT22;21110;48.036;15.780;2023-02-02T05:59:36;21.60;40.70
29243;DHT22;21110;48.036;15.780;2023-02-02T06:02:02;21.60;40.80
29243;DHT22;21110;48.036;15.780;2023-02-02T06:04:27;21.60;40.90
29243;DHT22;21110;48.036;15.780;2023-02-02T06:06:53;21.60;40.90
29243;DHT22;21110;48.036;15.780;2023-02-02T06:09:18;21.60;40.90
29243;DHT22;21110;48.036;15.780;2023-02-02T06:11:44;21.60;41.00
29243;DHT22;21110;48.036;15.780;2023-02-02T06:14:10;21.60;41.00
29243;DHT22;21110;48.036;15.780;2023-02-02T06:16:35;21.50;41.00
29243;DHT22;21110;48.036;15.780;2023-02-02T06:19:01;21.50;41.00
29243;DHT22;21110;48.036;15.780;2023-02-02T06:21:27;21.50;41.10
29243;DHT22;21110;48.036;15.780;2023-02-02T06:23:56;21.50;41.20
29243;DHT22;21110;48.036;15.780;2023-02-02T06:26:22;21.50;41.20
29243;DHT22;21110;48.036;15.780;2023-02-02T06:28:50;21.50;41.20
29243;DHT22;21110;48.036;15.780;2023-02-02T06:31:16;21.50;41.20
29243;DHT22;21110;48.036;15.780;2023-02-02T06:33:51;21.50;41.30
29243;DHT22;21110;48.036;15.780;2023-02-02T06:36:17;21.50;41.40
29243;DHT22;21110;48.036;15.780;2023-02-02T06:38:42;21.50;41.40
29243;DHT22;21110;48.036;15.780;2023-02-02T06:41:08;21.40;41.30
29243;DHT22;21110;48.036;15.780;2023-02-02T06:43:33;21.50;41.40
29243;DHT22;21110;48.036;15.780;2023-02-02T06:45:59;21.40;41.40
29243;DHT22;21110;48.036;15.780;2023-02-02T06:48:25;21.40;41.50
29243;DHT22;21110;48.036;15.780;2023-02-02T06:50:51;21.40;42.10
29243;DHT22;21110;48.036;15.780;2023-02-02T06:53:18;21.40;41.50
29243;DHT22;21110;48.036;15.780;2023-02-02T06:55:58;21.40;41.50
29243;DHT22;21110;48.036;15.780;2023-02-02T06:58:25;21.40;41.50
29243;DHT22;21110;48.036;15.780;2023-02-02T07:00:51;21.40;41.50
29243;DHT22;21110;48.036;15.780;2023-02-02T07:03:18;21.40;41.50
29243;DHT22;21110;48.036;15.780;2023-02-02T07:05:48;21.40;41.50
29243;DHT22;21110;48.036;15.780;2023-02-02T07:08:14;21.40;41.60
29243;DHT22;21110;48.036;15.780;2023-02-02T07:10:40;21.40;41.60
29243;DHT22;21110;48.036;15.780;2023-02-02T07:13:06;21.40;41.60
29243;DHT22;21110;48.036;15.780;2023-02-02T07:15:37;21.40;41.60
29243;DHT22;21110;48.036;15.780;2023-02-02T07:18:02;21.40;41.60
29243;DHT22;21110;48.036;15.780;2023-02-02T07:20:28;21.40;41.60
29243;DHT22;21110;48.036;15.780;2023-02-02T07:22:54;21.40;41.60
29243;DHT22;21110;48.036;15.780;2023-02-02T07:25:20;21.40;41.70
29243;DHT22;21110;48.036;15.780;2023-02-02T07:27:46;21.40;41.70
29243;DHT22;21110;48.036;15.780;2023-02-02T07:30:12;21.30;41.60
29243;DHT22;21110;48.036;15.780;2023-02-02T07:32:38;21.40;41.70
29243;DHT22;21110;48.036;15.780;2023-02-02T07:35:04;21.40;41.80
29243;DHT22;21110;48.036;15.780;2023-02-02T07:37:30;21.30;41.70
29243;DHT22;21110;48.036;15.780;2023-02-02T07:39:56;21.40;41.70
29243;DHT22;21110;48.036;15.780;2023-02-02T07:42:21;21.40;41.80
29243;DHT22;21110;48.036;15.780;2023-02-02T07:44:47;21.30;41.70
29243;DHT22;21110;48.036;15.780;2023-02-02T07:47:12;21.30;41.70
29243;DHT22;21110;48.036;15.780;2023-02-02T07:49:38;21.40;41.80
29243;DHT22;21110;48.036;15.780;2023-02-02T07:52:04;21.40;41.80
29243;DHT22;21110;48.036;15.780;2023-02-02T07:54:30;21.30;41.80
29243;DHT22;21110;48.036;15.780;2023-02-02T07:56:56;21.30;41.80
29243;DHT22;21110;48.036;15.780;2023-02-02T07:59:22;21.30;41.80
29243;DHT22;21110;48.036;15.780;2023-02-02T08:01:47;21.30;41.80
29243;DHT22;21110;48.036;15.780;2023-02-02T08:04:13;21.30;41.90
29243;DHT22;21110;48.036;15.780;2023-02-02T08:06:40;21.30;42.50
29243;DHT22;21110;48.036;15.780;2023-02-02T08:09:07;21.30;41.90
29243;DHT22;21110;48.036;15.780;2023-02-02T08:11:34;21.30;41.90
29243;DHT22;21110;48.036;15.780;2023-02-02T08:14:01;21.30;42.00
29243;DHT22;21110;48.036;15.780;2023-02-02T08:16:28;21.30;42.00
29243;DHT22;21110;48.036;15.780;2023-02-02T08:18:55;21.30;42.00
29243;DHT22;21110;48.036;15.780;2023-02-02T08:21:22;21.20;41.90
29243;DHT22;21110;48.036;15.780;2023-02-02T08:23:48;21.30;42.00
29243;DHT22;21110;48.036;15.780;2023-02-02T08:26:19;21.30;42.00
29243;DHT22;21110;48.036;15.780;2023-02-02T08:28:48;21.30;42.00
29243;DHT22;21110;48.036;15.780;2023-02-02T08:31:22;21.20;42.00
29243;DHT22;21110;48.036;15.780;2023-02-02T08:33:48;21.20;42.00
29243;DHT22;21110;48.036;15.780;2023-02-02T08:36:16;21.20;42.00
29243;DHT22;21110;48.036;15.780;2023-02-02T08:38:42;21.30;42.00
29243;DHT22;21110;48.036;15.780;2023-02-02T08:41:10;21.20;42.00
29243;DHT22;21110;48.036;15.780;2023-02-02T08:43:37;21.20;42.00
29243;DHT22;21110;48.036;15.780;2023-02-02T08:46:04;21.20;42.00
29243;DHT22;21110;48.036;15.780;2023-02-02T08:48:30;21.20;42.00
29243;DHT22;21110;48.036;15.780;2023-02-02T08:50:57;21.20;42.00
29243;DHT22;21110;48.036;15.780;2023-02-02T08:53:23;21.20;42.00
29243;DHT22;21110;48.036;15.780;2023-02-02T08:55:57;21.20;42.00
29243;DHT22;21110;48.036;15.780;2023-02-02T08:58:24;21.20;42.00
29243;DHT22;21110;48.036;15.780;2023-02-02T09:00:50;21.20;42.10
29243;DHT22;21110;48.036;15.780;2023-02-02T09:03:15;21.20;42.10
29243;DHT22;21110;48.036;15.780;2023-02-02T09:05:41;21.20;42.10
29243;DHT22;21110;48.036;15.780;2023-02-02T09:08:07;21.20;42.10
29243;DHT22;21110;48.036;15.780;2023-02-02T09:10:36;21.10;42.00
29243;DHT22;21110;48.036;15.780;2023-02-02T09:13:03;21.20;42.10
29243;DHT22;21110;48.036;15.780;2023-02-02T09:15:29;21.20;42.10
29243;DHT22;21110;48.036;15.780;2023-02-02T09:17:54;21.10;42.00
29243;DHT22;21110;48.036;15.780;2023-02-02T09:20:20;21.10;42.10
29243;DHT22;21110;48.036;15.780;2023-02-02T09:22:46;21.10;42.10
29243;DHT22;21110;48.036;15.780;2023-02-02T09:25:12;21.10;42.10
29243;DHT22;21110;48.036;15.780;2023-02-02T09:27:38;21.10;42.10
29243;DHT22;21110;48.036;15.780;2023-02-02T09:30:08;21.10;42.10
29243;DHT22;21110;48.036;15.780;2023-02-02T09:32:34;21.10;42.10
29243;DHT22;21110;48.036;15.780;2023-02-02T09:34:59;21.10;42.20
29243;DHT22;21110;48.036;15.780;2023-02-02T09:37:28;21.10;42.20
29243;DHT22;21110;48.036;15.780;2023-02-02T09:39:53;21.10;42.20
29243;DHT22;21110;48.036;15.780;2023-02-02T09:47:54;21.10;42.20
29243;DHT22;21110;48.036;15.780;2023-02-02T09:50:41;21.10;42.30
29243;DHT22;21110;48.036;15.780;2023-02-02T09:55:42;21.10;42.30
29243;DHT22;21110;48.036;15.780;2023-02-02T10:01:08;21.10;42.30
29243;DHT22;21110;48.036;15.780;2023-02-02T10:04:13;21.10;42.30
29243;DHT22;21110;48.036;15.780;2023-02-02T10:06:48;21.10;42.30
29243;DHT22;21110;48.036;15.780;2023-02-02T10:14:44;21.00;42.30
29243;DHT22;21110;48.036;15.780;2023-02-02T10:19:46;21.00;42.40
29243;DHT22;21110;48.036;15.780;2023-02-02T10:22:16;21.00;42.40
29243;DHT22;21110;48.036;15.780;2023-02-02T10:24:43;21.00;42.40
29243;DHT22;21110;48.036;15.780;2023-02-02T10:27:15;21.00;43.00
29243;DHT22;21110;48.036;15.780;2023-02-02T10:29:58;21.00;43.00
29243;DHT22;21110;48.036;15.780;2023-02-02T10:37:55;21.00;42.40
29243;DHT22;21110;48.036;15.780;2023-02-02T10:40:30;21.00;42.40
29243;DHT22;21110;48.036;15.780;2023-02-02T10:45:54;21.00;42.50
29243;DHT22;21110;48.036;15.780;2023-02-02T10:48:24;20.90;42.50
29243;DHT22;21110;48.036;15.780;2023-02-02T10:50:57;20.90;42.50
29243;DHT22;21110;48.036;15.780;2023-02-02T10:53:27;20.90;42.50
29243;DHT22;21110;48.036;15.780;2023-02-02T10:56:04;20.90;42.50
29243;DHT22;21110;48.036;15.780;2023-02-02T11:01:03;20.90;42.50
29243;DHT22;21110;48.036;15.780;2023-02-02T11:03:32;20.90;42.50
29243;DHT22;21110;48.036;15.780;2023-02-02T11:06:01;20.90;42.50
29243;DHT22;21110;48.036;15.780;2023-02-02T11:08:48;20.90;42.50
29243;DHT22;21110;48.036;15.780;2023-02-02T11:14:03;20.90;42.50
29243;DHT22;21110;48.036;15.780;2023-02-02T11:16:37;20.90;42.50
29243;DHT22;21110;48.036;15.780;2023-02-02T11:21:49;20.80;42.50
29243;DHT22;21110;48.036;15.780;2023-02-02T11:32:29;20.80;42.60
29243;DHT22;21110;48.036;15.780;2023-02-02T11:35:20;20.80;42.60
29243;DHT22;21110;48.036;15.780;2023-02-02T11:38:08;20.80;42.60
29243;DHT22;21110;48.036;15.780;2023-02-02T11:40:35;20.80;42.60
29243;DHT22;21110;48.036;15.780;2023-02-02T11:46:15;20.80;42.70
29243;DHT22;21110;48.036;15.780;2023-02-02T11:48:57;20.80;42.70
29243;DHT22;21110;48.036;15.780;2023-02-02T11:51:25;20.80;42.80
29243;DHT22;21110;48.036;15.780;2023-02-02T11:54:05;20.80;42.70
29243;DHT22;21110;48.036;15.780;2023-02-02T11:56:32;20.80;42.80
29243;DHT22;21110;48.036;15.780;2023-02-02T11:58:59;20.80;42.80
29243;DHT22;21110;48.036;15.780;2023-02-02T12:01:35;20.70;42.80
29243;DHT22;21110;48.036;15.780;2023-02-02T12:06:41;20.80;42.80
29243;DHT22;21110;48.036;15.780;2023-02-02T12:09:16;20.70;42.80
29243;DHT22;21110;48.036;15.780;2023-02-02T12:15:07;20.70;42.80
29243;DHT22;21110;48.036;15.780;2023-02-02T12:17:42;20.70;42.80
29243;DHT22;21110;48.036;15.780;2023-02-02T12:20:37;20.70;42.80
29243;DHT22;21110;48.036;15.780;2023-02-02T12:26:04;20.70;42.90
29243;DHT22;21110;48.036;15.780;2023-02-02T12:31:42;20.60;42.80
29243;DHT22;21110;48.036;15.780;2023-02-02T12:34:31;20.70;42.90
29243;DHT22;21110;48.036;15.780;2023-02-02T12:50:17;20.60;42.80
29243;DHT22;21110;48.036;15.780;2023-02-02T12:52:52;20.60;42.80
29243;DHT22;21110;48.036;15.780;2023-02-02T13:01:35;20.60;42.90
29243;DHT22;21110;48.036;15.780;2023-02-02T13:09:30;20.60;43.00
29243;DHT22;21110;48.036;15.780;2023-02-02T13:12:10;20.60;43.00
29243;DHT22;21110;48.036;15.780;2023-02-02T13:17:37;20.50;42.90
29243;DHT22;21110;48.036;15.780;2023-02-02T13:22:44;20.50;42.90
29243;DHT22;21110;48.036;15.780;2023-02-02T13:25:46;20.50;42.90
29243;DHT22;21110;48.036;15.780;2023-02-02T13:28:24;20.50;42.90
29243;DHT22;21110;48.036;15.780;2023-02-02T13:30:52;20.50;43.00
29243;DHT22;21110;48.036;15.780;2023-02-02T13:33:28;20.50;42.90
29243;DHT22;21110;48.036;15.780;2023-02-02T13:36:02;20.50;43.00
29243;DHT22;21110;48.036;15.780;2023-02-02T13:38:30;20.50;43.00
29243;DHT22;21110;48.036;15.780;2023-02-02T13:41:00;20.50;43.00
29243;DHT22;21110;48.036;15.780;2023-02-02T13:46:23;20.50;43.60
29243;DHT22;21110;48.036;15.780;2023-02-02T13:49:08;20.50;43.00
29243;DHT22;21110;48.036;15.780;2023-02-02T13:54:46;20.40;43.00
29243;DHT22;21110;48.036;15.780;2023-02-02T14:00:20;20.40;43.00
29243;DHT22;21110;48.036;15.780;2023-02-02T14:02:48;20.40;43.00
29243;DHT22;21110;48.036;15.780;2023-02-02T14:07:47;20.40;43.10
29243;DHT22;21110;48.036;15.780;2023-02-02T14:10:25;20.40;43.00
29243;DHT22;21110;48.036;15.780;2023-02-02T14:12:53;20.40;43.10
29243;DHT22;21110;48.036;15.780;2023-02-02T14:15:38;20.40;43.00
29243;DHT22;21110;48.036;15.780;2023-02-02T14:18:05;20.40;43.10
29243;DHT22;21110;48.036;15.780;2023-02-02T14:20:51;20.40;43.10
29243;DHT22;21110;48.036;15.780;2023-02-02T14:23:52;20.40;43.10
29243;DHT22;21110;48.036;15.780;2023-02-02T14:26:38;20.40;43.10
29243;DHT22;21110;48.036;15.780;2023-02-02T14:34:53;20.30;43.10
29243;DHT22;21110;48.036;15.780;2023-02-02T14:45:45;20.30;43.20
29243;DHT22;21110;48.036;15.780;2023-02-02T14:48:25;20.30;43.20
29243;DHT22;21110;48.036;15.780;2023-02-02T14:50:54;20.30;43.20
29243;DHT22;21110;48.036;15.780;2023-02-02T14:53:26;20.30;43.20
29243;DHT22;21110;48.036;15.780;2023-02-02T14:56:11;20.30;43.20
29243;DHT22;21110;48.036;15.780;2023-02-02T15:03:55;20.30;43.20
29243;DHT22;21110;48.036;15.780;2023-02-02T15:25:22;20.30;43.40
29243;DHT22;21110;48.036;15.780;2023-02-02T15:27:58;20.20;43.20
29243;DHT22;21110;48.036;15.780;2023-02-02T15:30:27;20.20;43.30
29243;DHT22;21110;48.036;15.780;2023-02-02T15:32:55;20.20;43.30
29243;DHT22;21110;48.036;15.780;2023-02-02T15:35:25;20.30;43.40
29243;DHT22;21110;48.036;15.780;2023-02-02T15:37:57;20.20;43.30
29243;DHT22;21110;48.036;15.780;2023-02-02T15:40:26;20.20;43.30
29243;DHT22;21110;48.036;15.780;2023-02-02T15:42:56;20.20;43.30
29243;DHT22;21110;48.036;15.780;2023-02-02T15:45:36;20.20;43.30
29243;DHT22;21110;48.036;15.780;2023-02-02T15:48:28;20.20;43.30
29243;DHT22;21110;48.036;15.780;2023-02-02T15:51:02;20.20;43.30
29243;DHT22;21110;48.036;15.780;2023-02-02T15:58:46;20.20;43.40
29243;DHT22;21110;48.036;15.780;2023-02-02T16:01:17;20.20;43.40
29243;DHT22;21110;48.036;15.780;2023-02-02T16:06:17;20.20;43.40
29243;DHT22;21110;48.036;15.780;2023-02-02T16:08:44;20.10;43.30
29243;DHT22;21110;48.036;15.780;2023-02-02T16:11:15;20.10;43.40
29243;DHT22;21110;48.036;15.780;2023-02-02T16:13:53;20.10;43.40
29243;DHT22;21110;48.036;15.780;2023-02-02T16:16:39;20.10;43.40
29243;DHT22;21110;48.036;15.780;2023-02-02T16:19:18;20.10;43.40
29243;DHT22;21110;48.036;15.780;2023-02-02T16:22:01;20.10;43.50
29243;DHT22;21110;48.036;15.780;2023-02-02T16:24:31;20.10;43.40
29243;DHT22;21110;48.036;15.780;2023-02-02T16:27:00;20.10;43.40
29243;DHT22;21110;48.036;15.780;2023-02-02T16:29:27;20.10;43.50
29243;DHT22;21110;48.036;15.780;2023-02-02T16:31:54;20.10;43.40
29243;DHT22;21110;48.036;15.780;2023-02-02T16:39:39;20.10;43.50
29243;DHT22;21110;48.036;15.780;2023-02-02T16:42:22;20.00;43.40
29243;DHT22;21110;48.036;15.780;2023-02-02T16:44:48;20.00;43.40
29243;DHT22;21110;48.036;15.780;2023-02-02T16:49:52;20.00;43.40
29243;DHT22;21110;48.036;15.780;2023-02-02T16:52:20;20.00;43.40
29243;DHT22;21110;48.036;15.780;2023-02-02T16:54:54;20.10;43.50
29243;DHT22;21110;48.036;15.780;2023-02-02T16:57:23;20.00;43.50
29243;DHT22;21110;48.036;15.780;2023-02-02T16:59:52;20.00;43.50
29243;DHT22;21110;48.036;15.780;2023-02-02T17:02:28;20.00;43.50
29243;DHT22;21110;48.036;15.780;2023-02-02T17:05:27;20.00;43.50
29243;DHT22;21110;48.036;15.780;2023-02-02T17:07:59;20.00;43.50
29243;DHT22;21110;48.036;15.780;2023-02-02T17:10:33;20.00;43.50
29243;DHT22;21110;48.036;15.780;2023-02-02T17:13:01;20.00;43.50
29243;DHT22;21110;48.036;15.780;2023-02-02T17:15:34;20.00;43.50
29243;DHT22;21110;48.036;15.780;2023-02-02T17:18:00;20.00;43.50
29243;DHT22;21110;48.036;15.780;2023-02-02T17:20:27;20.00;43.50
29243;DHT22;21110;48.036;15.780;2023-02-02T17:23:00;20.00;43.50
29243;DHT22;21110;48.036;15.780;2023-02-02T17:25:40;20.00;43.50
29243;DHT22;21110;48.036;15.780;2023-02-02T17:28:11;20.00;43.60
29243;DHT22;21110;48.036;15.780;2023-02-02T17:30:39;20.00;43.60
29243;DHT22;21110;48.036;15.780;2023-02-02T17:33:13;19.90;43.50
29243;DHT22;21110;48.036;15.780;2023-02-02T17:35:39;20.00;43.60
29243;DHT22;21110;48.036;15.780;2023-02-02T17:38:05;19.90;43.50
29243;DHT22;21110;48.036;15.780;2023-02-02T17:40:33;19.90;43.50
29243;DHT22;21110;48.036;15.780;2023-02-02T17:42:59;19.90;43.50
29243;DHT22;21110;48.036;15.780;2023-02-02T17:45:32;19.90;43.50
29243;DHT22;21110;48.036;15.780;2023-02-02T17:47:57;19.90;43.50
29243;DHT22;21110;48.036;15.780;2023-02-02T17:50:24;19.90;43.50
29243;DHT22;21110;48.036;15.780;2023-02-02T17:52:50;19.90;43.50
29243;DHT22;21110;48.036;15.780;2023-02-02T17:55:30;19.90;43.50
29243;DHT22;21110;48.036;15.780;2023-02-02T17:57:57;19.90;43.60
29243;DHT22;21110;48.036;15.780;2023-02-02T18:00:24;19.90;43.60
29243;DHT22;21110;48.036;15.780;2023-02-02T18:03:17;19.90;43.60
29243;DHT22;21110;48.036;15.780;2023-02-02T18:05:43;19.90;44.10
29243;DHT22;21110;48.036;15.780;2023-02-02T18:08:12;19.90;43.60
29243;DHT22;21110;48.036;15.780;2023-02-02T18:10:39;19.90;43.60
29243;DHT22;21110;48.036;15.780;2023-02-02T18:13:05;19.90;43.60
29243;DHT22;21110;48.036;15.780;2023-02-02T18:15:31;19.80;43.50
29243;DHT22;21110;48.036;15.780;2023-02-02T18:17:59;19.80;43.60
29243;DHT22;21110;48.036;15.780;2023-02-02T18:20:26;19.80;43.60
29243;DHT22;21110;48.036;15.780;2023-02-02T18:22:52;19.90;43.60
29243;DHT22;21110;48.036;15.780;2023-02-02T18:25:18;19.80;43.60
29243;DHT22;21110;48.036;15.780;2023-02-02T18:27:43;19.80;43.50
29243;DHT22;21110;48.036;15.780;2023-02-02T18:30:09;19.80;43.60
29243;DHT22;21110;48.036;15.780;2023-02-02T18:32:39;19.80;43.60
29243;DHT22;21110;48.036;15.780;2023-02-02T18:35:07;19.80;43.60
29243;DHT22;21110;48.036;15.780;2023-02-02T18:37:33;19.80;43.60
29243;DHT22;21110;48.036;15.780;2023-02-02T18:39:59;19.80;43.60